Time;durP1;ratioP1;P1;durP2;ratioP2;P2;SDS_P1;SDS_P2;PMS_P1;PMS_P2;Temp;Humidity;BMP_temperature;BMP_pressure;BME280_temperature;BME280_humidity;BME280_pressure;Samples;Min_cycle;Max_cycle;Signal;HPM_P1;HPM_P2
2023/03/17 06:02:32;;;;;;;;;10.67;9.67;;;;;-147.14;100.00;58812.66;4991477;23;45546;-67
2023/03/17 06:04:57;;;;;;;;;14.33;13.00;;;;;-147.14;100.00;58812.66;4984577;28;45453;-66
2023/03/17 06:07:22;;;;;;;;;12.33;10.33;;;;;-147.14;100.00;58812.66;4966116;28;63256;-66
2023/03/17 06:09:48;;;;;;;;;11.00;11.00;;;;;-147.14;100.00;58812.66;4982929;28;72583;-67
2023/03/17 06:12:14;;;;;;;;;10.33;10.33;;;;;-147.14;100.00;58812.66;4985161;28;72220;-66
2023/03/17 06:14:39;;;;;;;;;10.00;8.67;;;;;-147.14;100.00;58812.66;4989320;28;45231;-67
2023/03/17 06:17:05;;;;;;;;;12.67;11.00;;;;;-147.14;100.00;58812.66;4983317;28;66412;-66
2023/03/17 06:19:31;;;;;;;;;11.33;9.67;;;;;-147.14;100.00;58812.66;4986996;28;45242;-67
2023/03/17 06:21:56;;;;;;;;;13.33;10.00;;;;;-147.14;100.00;58812.66;4981119;28;45319;-67
2023/03/17 06:24:21;;;;;;;;;12.00;8.33;;;;;-147.14;100.00;58812.66;5017723;28;45367;-67
2023/03/17 06:26:47;;;;;;;;;9.33;9.00;;;;;-147.14;100.00;58812.66;4987120;28;45577;-67
2023/03/17 06:29:12;;;;;;;;;9.33;9.33;;;;;-147.14;100.00;58812.66;4980823;28;73058;-67
2023/03/17 06:31:38;;;;;;;;;10.67;8.00;;;;;-147.14;100.00;58812.66;4979379;28;65005;-66
2023/03/17 06:34:04;;;;;;;;;10.00;7.33;;;;;-147.14;100.00;58812.66;4981037;28;45371;-67
2023/03/17 06:36:31;;;;;;;;;11.00;9.00;;;;;-147.14;100.00;58812.66;4979631;28;45342;-67
2023/03/17 06:38:56;;;;;;;;;10.33;10.33;;;;;-147.14;100.00;58812.66;4980154;28;45735;-67
2023/03/17 06:41:22;;;;;;;;;9.00;8.33;;;;;-147.14;100.00;58812.66;4980377;28;45427;-67
2023/03/17 06:43:48;;;;;;;;;10.00;6.67;;;;;-147.14;100.00;58812.66;4980203;28;45562;-66
2023/03/17 06:46:13;;;;;;;;;9.67;8.00;;;;;-147.14;100.00;58812.66;4980090;28;45741;-66
2023/03/17 06:48:38;;;;;;;;;15.00;9.67;;;;;-147.14;100.00;58812.66;4981621;28;60396;-66
2023/03/17 06:51:04;;;;;;;;;8.00;8.00;;;;;-147.14;100.00;58812.66;4979295;28;45487;-67
2023/03/17 06:53:30;;;;;;;;;4.00;4.00;;;;;-147.14;100.00;58812.66;4978547;28;45649;-66
2023/03/17 06:55:56;;;;;;;;;11.00;10.00;;;;;-147.14;100.00;58812.66;4983337;28;45519;-65
2023/03/17 06:58:22;;;;;;;;;11.00;8.00;;;;;-147.14;100.00;58812.66;4980898;28;46514;-66
2023/03/17 07:00:47;;;;;;;;;8.00;8.00;;;;;-147.14;100.00;58812.66;4978774;28;46087;-66
2023/03/17 07:03:14;;;;;;;;;8.00;7.00;;;;;-147.14;100.00;58812.66;4981871;28;45221;-66
2023/03/17 07:05:40;;;;;;;;;12.33;10.00;;;;;-147.14;100.00;58812.66;4981838;28;45581;-66
2023/03/17 07:08:06;;;;;;;;;10.00;9.00;;;;;-147.14;100.00;58812.66;4973564;28;46560;-66
2023/03/17 07:10:32;;;;;;;;;8.00;8.00;;;;;-147.14;100.00;58812.66;4979599;28;45377;-65
2023/03/17 07:12:57;;;;;;;;;11.00;10.00;;;;;-147.14;100.00;58812.66;4974282;28;45706;-65
2023/03/17 07:15:23;;;;;;;;;10.00;8.33;;;;;-147.14;100.00;58812.66;4981193;28;45654;-65
2023/03/17 07:17:48;;;;;;;;;10.00;9.00;;;;;-147.14;100.00;58812.66;4980766;28;46858;-65
2023/03/17 07:20:14;;;;;;;;;10.33;10.00;;;;;-147.14;100.00;58812.66;4983202;28;66924;-65
2023/03/17 07:22:40;;;;;;;;;8.67;8.67;;;;;-147.14;100.00;58812.66;4987768;28;45286;-64
2023/03/17 07:25:06;;;;;;;;;9.67;9.00;;;;;-147.14;100.00;58812.66;4978786;28;45443;-64
2023/03/17 07:27:32;;;;;;;;;7.00;7.00;;;;;-147.14;100.00;58812.66;4979992;28;47160;-64
2023/03/17 07:30:01;;;;;;;;;9.00;8.33;;;;;-147.14;100.00;58812.66;4979567;28;45729;-63
2023/03/17 07:32:26;;;;;;;;;7.67;7.00;;;;;-147.14;100.00;58812.66;4986150;28;45371;-65
2023/03/17 07:34:52;;;;;;;;;7.67;7.00;;;;;-147.14;100.00;58812.66;4992756;28;45242;-66
2023/03/17 07:37:18;;;;;;;;;11.00;10.00;;;;;-147.14;100.00;58812.66;4989210;28;46089;-65
2023/03/17 07:39:46;;;;;;;;;6.33;5.00;;;;;-147.14;100.00;58812.66;4975263;28;45486;-65
2023/03/17 07:42:14;;;;;;;;;9.67;9.67;;;;;-147.14;100.00;58812.66;5006595;28;45486;-65
2023/03/17 07:44:40;;;;;;;;;8.50;8.50;;;;;-147.14;100.00;58812.66;4994706;28;45674;-66
2023/03/17 07:47:05;;;;;;;;;11.00;8.67;;;;;-147.14;100.00;58812.66;4988881;28;47467;-65
2023/03/17 07:49:31;;;;;;;;;10.67;9.33;;;;;-147.14;100.00;58812.66;4995253;28;45346;-65
2023/03/17 07:51:56;;;;;;;;;9.33;7.33;;;;;-147.14;100.00;58812.66;4983036;28;45502;-65
2023/03/17 07:54:22;;;;;;;;;9.00;8.33;;;;;-147.14;100.00;58812.66;4993744;28;65223;-65
2023/03/17 07:56:47;;;;;;;;;7.33;7.00;;;;;-147.14;100.00;58812.66;4989189;28;45450;-63
2023/03/17 07:59:12;;;;;;;;;10.67;8.33;;;;;-147.14;100.00;58812.66;4986246;28;45488;-63
2023/03/17 08:01:38;;;;;;;;;9.00;8.33;;;;;-147.14;100.00;58812.66;4989679;28;57213;-65
2023/03/17 08:04:04;;;;;;;;;1.33;1.33;;;;;-147.14;100.00;58812.66;4994905;28;45608;-64
2023/03/17 08:06:31;;;;;;;;;7.00;7.00;;;;;-147.14;100.00;58812.66;4991697;28;45423;-65
2023/03/17 08:08:56;;;;;;;;;7.67;7.00;;;;;-147.14;100.00;58812.66;4995626;28;45439;-65
2023/03/17 08:11:22;;;;;;;;;10.67;8.00;;;;;-147.14;100.00;58812.66;4992789;28;50652;-64
2023/03/17 08:13:48;;;;;;;;;9.33;9.33;;;;;-147.14;100.00;58812.66;4962792;28;45250;-64
2023/03/17 08:16:15;;;;;;;;;9.00;7.67;;;;;-147.14;100.00;58812.66;4988474;28;45649;-65
2023/03/17 08:18:41;;;;;;;;;9.00;8.33;;;;;-147.14;100.00;58812.66;4993836;28;46052;-64
2023/03/17 08:21:06;;;;;;;;;11.00;7.67;;;;;-147.14;100.00;58812.66;4986057;28;45353;-65
2023/03/17 08:23:32;;;;;;;;;7.33;6.33;;;;;-147.14;100.00;58812.66;4978487;28;45431;-65
2023/03/17 08:26:02;;;;;;;;;7.33;6.67;;;;;-147.14;100.00;58812.66;4979079;28;45963;-65
2023/03/17 08:28:28;;;;;;;;;11.33;10.00;;;;;-147.14;100.00;58812.66;4979624;28;45562;-65
2023/03/17 08:30:54;;;;;;;;;8.67;6.33;;;;;-147.14;100.00;58812.66;4977675;28;45511;-65
2023/03/17 08:33:20;;;;;;;;;9.67;5.00;;;;;-147.14;100.00;58812.66;4978960;28;45316;-64
2023/03/17 08:35:45;;;;;;;;;6.00;6.00;;;;;-147.14;100.00;58812.66;4977793;28;46321;-64
2023/03/17 08:38:11;;;;;;;;;8.00;6.33;;;;;-147.14;100.00;58812.66;4977139;28;45384;-64
2023/03/17 08:40:38;;;;;;;;;13.67;9.67;;;;;-147.14;100.00;58812.66;4979445;28;45492;-64
2023/03/17 08:43:04;;;;;;;;;8.67;8.33;;;;;-147.14;100.00;58812.66;4977532;28;45388;-64
2023/03/17 08:45:29;;;;;;;;;7.33;7.33;;;;;-147.14;100.00;58812.66;4977649;28;45573;-64
2023/03/17 08:47:55;;;;;;;;;7.67;7.67;;;;;-147.14;100.00;58812.66;4978302;28;45586;-64
2023/03/17 08:50:22;;;;;;;;;9.00;8.33;;;;;-147.14;100.00;58812.66;4978757;28;45413;-65
2023/03/17 08:52:48;;;;;;;;;6.00;6.00;;;;;-147.14;100.00;58812.66;4977211;28;45421;-64
2023/03/17 08:55:15;;;;;;;;;5.00;5.00;;;;;-147.14;100.00;58812.66;4978224;28;46218;-64
2023/03/17 08:57:41;;;;;;;;;8.00;8.00;;;;;-147.14;100.00;58812.66;4978673;28;45754;-65
2023/03/17 09:00:10;;;;;;;;;8.33;6.00;;;;;-147.14;100.00;58812.66;4978537;28;45412;-66
2023/03/17 09:02:41;;;;;;;;;7.00;4.67;;;;;-147.14;100.00;58812.66;4977271;28;45295;-66
2023/03/17 09:05:08;;;;;;;;;9.67;5.00;;;;;-147.14;100.00;58812.66;4978343;28;46365;-66
2023/03/17 09:07:33;;;;;;;;;7.00;7.00;;;;;-147.14;100.00;58812.66;4977413;28;45326;-66
2023/03/17 09:09:59;;;;;;;;;8.33;8.33;;;;;-147.14;100.00;58812.66;4977472;28;66649;-65
2023/03/17 09:12:24;;;;;;;;;9.67;6.00;;;;;-147.14;100.00;58812.66;4978925;28;45230;-66
2023/03/17 09:14:50;;;;;;;;;7.33;7.00;;;;;-147.14;100.00;58812.66;4977436;28;45347;-66
2023/03/17 09:17:15;;;;;;;;;7.67;7.00;;;;;-147.14;100.00;58812.66;4983224;28;45978;-66
2023/03/17 09:19:42;;;;;;;;;17.00;13.67;;;;;-147.14;100.00;58812.66;4980804;28;45543;-65
2023/03/17 09:22:12;;;;;;;;;16.33;8.00;;;;;-147.14;100.00;58812.66;4984669;28;45350;-66
2023/03/17 09:24:37;;;;;;;;;9.00;8.00;;;;;-147.14;100.00;58812.66;4982355;28;47038;-66
2023/03/17 09:27:02;;;;;;;;;8.00;6.67;;;;;-147.14;100.00;58812.66;4985771;28;59401;-66
2023/03/17 09:29:28;;;;;;;;;5.67;5.67;;;;;-147.14;100.00;58812.66;4983299;28;45653;-66
2023/03/17 09:31:55;;;;;;;;;4.67;3.67;;;;;-147.14;100.00;58812.66;4985253;28;51311;-66
2023/03/17 09:34:23;;;;;;;;;6.33;6.00;;;;;-147.14;100.00;58812.66;4980110;28;45578;-64
2023/03/17 09:36:49;;;;;;;;;5.33;4.67;;;;;-147.14;100.00;58812.66;4982391;28;45502;-65
2023/03/17 09:39:15;;;;;;;;;8.00;5.00;;;;;-147.14;100.00;58812.66;4980431;28;45376;-66
2023/03/17 09:41:48;;;;;;;;;5.33;5.00;;;;;-147.14;100.00;58812.66;4985941;28;45448;-67
2023/03/17 09:44:25;;;;;;;;;9.67;6.00;;;;;-147.14;100.00;58812.66;4979282;28;45824;-67
2023/03/17 09:47:05;;;;;;;;;6.33;6.00;;;;;-147.14;100.00;58812.66;4970150;28;45504;-66
2023/03/17 09:50:02;;;;;;;;;6.67;5.00;;;;;-147.14;100.00;58812.66;4984912;28;45725;-66
2023/03/17 09:52:30;;;;;;;;;7.33;5.67;;;;;-147.14;100.00;58812.66;4982534;28;45270;-66
2023/03/17 09:54:56;;;;;;;;;7.33;7.00;;;;;-147.14;100.00;58812.66;4974315;28;46364;-67
2023/03/17 09:57:38;;;;;;;;;10.00;7.00;;;;;-147.14;100.00;58812.66;4982812;28;45500;-66
2023/03/17 10:00:28;;;;;;;;;8.00;6.33;;;;;-147.14;100.00;58812.66;4982751;28;45455;-66
2023/03/17 10:02:55;;;;;;;;;7.00;6.00;;;;;-147.14;100.00;58812.66;4980422;28;45587;-66
2023/03/17 10:05:23;;;;;;;;;7.00;5.00;;;;;-147.14;100.00;58812.66;4985426;28;46190;-65
2023/03/17 10:08:11;;;;;;;;;3.67;2.33;;;;;-147.14;100.00;58812.66;5005045;28;45440;-66
2023/03/17 10:10:48;;;;;;;;;2.67;2.00;;;;;-147.14;100.00;58812.66;4991536;28;45333;-66
2023/03/17 10:13:37;;;;;;;;;3.67;2.67;;;;;-147.14;100.00;58812.66;4979994;28;45508;-67
2023/03/17 10:16:10;;;;;;;;;2.00;2.00;;;;;-147.14;100.00;58812.66;4980949;28;46276;-66
2023/03/17 10:18:45;;;;;;;;;2.00;2.00;;;;;-147.14;100.00;58812.66;4986252;28;45432;-66
2023/03/17 10:21:16;;;;;;;;;3.33;2.33;;;;;-147.14;100.00;58812.66;4980441;28;45460;-66
2023/03/17 10:23:42;;;;;;;;;4.50;2.00;;;;;-147.14;100.00;58812.66;4979175;28;45400;-66
2023/03/17 10:26:39;;;;;;;;;3.00;2.00;;;;;-147.14;100.00;58812.66;4979230;28;46013;-67
2023/03/17 10:29:11;;;;;;;;;2.00;1.00;;;;;-147.14;100.00;58812.66;4974917;28;45801;-66
2023/03/17 10:31:38;;;;;;;;;2.00;2.00;;;;;-147.14;100.00;58812.66;4970844;28;45848;-66
2023/03/17 10:34:17;;;;;;;;;2.00;2.00;;;;;-147.14;100.00;58812.66;4985410;28;45467;-66
2023/03/17 10:36:53;;;;;;;;;4.67;2.00;;;;;-147.14;100.00;58812.66;4985509;28;45311;-66
2023/03/17 10:39:20;;;;;;;;;4.00;3.00;;;;;-147.14;100.00;58812.66;4981587;28;45788;-64
2023/03/17 10:41:54;;;;;;;;;3.00;3.00;;;;;-147.14;100.00;58812.66;4982242;28;45548;-66
2023/03/17 10:44:45;;;;;;;;;4.00;4.00;;;;;-147.14;100.00;58812.66;4987853;28;45384;-66
2023/03/17 10:47:32;;;;;;;;;3.00;3.00;;;;;-147.14;100.00;58812.66;4982915;28;46312;-66
2023/03/17 10:50:17;;;;;;;;;6.00;6.00;;;;;-147.14;100.00;58812.66;4982354;28;45294;-66
2023/03/17 10:52:45;;;;;;;;;3.67;3.67;;;;;-147.14;100.00;58812.66;4986072;28;45348;-66
2023/03/17 10:55:14;;;;;;;;;5.33;3.67;;;;;-147.14;100.00;58812.66;4984558;28;45688;-65
2023/03/17 10:57:54;;;;;;;;;3.67;3.67;;;;;-147.14;100.00;58812.66;4991403;28;45462;-66
2023/03/17 11:00:21;;;;;;;;;8.67;8.67;;;;;-147.14;100.00;58812.66;4979741;28;45350;-66
2023/03/17 11:02:52;;;;;;;;;4.33;3.67;;;;;-147.14;100.00;58812.66;4980858;28;45461;-66
2023/03/17 11:05:21;;;;;;;;;4.67;3.00;;;;;-147.14;100.00;58812.66;4987327;28;45366;-66
2023/03/17 11:07:47;;;;;;;;;9.33;7.00;;;;;-147.14;100.00;58812.66;4990254;28;45427;-65
2023/03/17 11:10:18;;;;;;;;;3.00;3.00;;;;;-147.14;100.00;58812.66;4985201;28;45384;-65
2023/03/17 11:12:43;;;;;;;;;4.00;2.00;;;;;-147.14;100.00;58812.66;4985922;28;45361;-65
2023/03/17 11:15:16;;;;;;;;;2.00;1.67;;;;;-147.14;100.00;58812.66;4998781;28;45514;-67
2023/03/17 11:17:48;;;;;;;;;2.00;2.00;;;;;-147.14;100.00;58812.66;4982543;28;47522;-66
2023/03/17 11:20:41;;;;;;;;;1.00;1.00;;;;;-147.14;100.00;58812.66;4980185;28;45365;-66
2023/03/17 11:23:14;;;;;;;;;3.00;2.33;;;;;-147.14;100.00;58812.66;4963182;28;45450;-66
2023/03/17 11:25:41;;;;;;;;;4.00;4.00;;;;;-147.14;100.00;58812.66;4963144;28;45420;-66
2023/03/17 11:28:22;;;;;;;;;2.00;2.00;;;;;-147.14;100.00;58812.66;4979915;28;45436;-66
2023/03/17 11:30:57;;;;;;;;;3.00;3.00;;;;;-147.14;100.00;58812.66;4952099;28;45958;-66
2023/03/17 11:33:47;;;;;;;;;1.00;1.00;;;;;-147.14;100.00;58812.66;4983627;28;45514;-66
2023/03/17 11:36:36;;;;;;;;;1.67;1.67;;;;;-147.14;100.00;58812.66;4979202;28;45731;-66
2023/03/17 11:39:27;;;;;;;;;4.33;3.00;;;;;-147.14;100.00;58812.66;4969785;28;46330;-66
2023/03/17 11:42:14;;;;;;;;;4.33;2.00;;;;;-147.14;100.00;58812.66;4978502;28;45380;-66
2023/03/17 11:44:58;;;;;;;;;2.50;2.00;;;;;-147.14;100.00;58812.66;4978786;28;45468;-66
2023/03/17 11:47:41;;;;;;;;;4.67;3.67;;;;;-147.14;100.00;58812.66;4972201;28;45635;-66
2023/03/17 11:50:21;;;;;;;;;4.00;2.00;;;;;-147.14;100.00;58812.66;4966952;28;46310;-66
2023/03/17 11:52:59;;;;;;;;;3.00;3.00;;;;;-147.14;100.00;58812.66;4979398;28;45338;-67
2023/03/17 11:55:45;;;;;;;;;3.67;2.67;;;;;-147.14;100.00;58812.66;4981682;28;45434;-66
2023/03/17 11:58:26;;;;;;;;;4.00;2.00;;;;;-147.14;100.00;58812.66;4971093;28;45713;-66
2023/03/17 12:00:55;;;;;;;;;5.33;4.67;;;;;-147.14;100.00;58812.66;4981863;28;45472;-65
2023/03/17 12:03:44;;;;;;;;;4.00;2.00;;;;;-147.14;100.00;58812.66;4961981;28;45488;-65
2023/03/17 12:06:16;;;;;;;;;3.33;2.33;;;;;-147.14;100.00;58812.66;4976674;28;45400;-66
2023/03/17 12:08:55;;;;;;;;;7.33;4.00;;;;;-147.14;100.00;58812.66;4975622;28;45317;-66
2023/03/17 12:11:24;;;;;;;;;7.33;5.67;;;;;-147.14;100.00;58812.66;4974928;28;45457;-63
2023/03/17 12:13:52;;;;;;;;;4.33;4.00;;;;;-147.14;100.00;58812.66;4987071;28;45498;-65
2023/03/17 12:16:25;;;;;;;;;5.33;4.67;;;;;-147.14;100.00;58812.66;4976469;28;45655;-65
2023/03/17 12:19:18;;;;;;;;;7.00;5.67;;;;;-147.14;100.00;58812.66;4978222;28;45424;-65
2023/03/17 12:21:53;;;;;;;;;4.00;4.00;;;;;-147.14;100.00;58812.66;4976036;28;45421;-66
2023/03/17 12:24:33;;;;;;;;;8.00;4.00;;;;;-147.14;100.00;58812.66;4980041;28;45201;-65
2023/03/17 12:27:03;;;;;;;;;5.00;5.00;;;;;-147.14;100.00;58812.66;4975965;28;45451;-65
2023/03/17 12:29:53;;;;;;;;;4.67;3.67;;;;;-147.14;100.00;58812.66;4962406;28;45715;-65
2023/03/17 12:32:44;;;;;;;;;5.00;4.67;;;;;-147.14;100.00;58812.66;4978625;28;45376;-65
2023/03/17 12:35:33;;;;;;;;;4.67;3.67;;;;;-147.14;100.00;58812.66;4979232;28;45467;-64
2023/03/17 12:38:19;;;;;;;;;8.67;8.00;;;;;-147.14;100.00;58812.66;4979856;28;45312;-65
2023/03/17 12:41:10;;;;;;;;;5.00;5.00;;;;;-147.14;100.00;58812.66;4979014;28;45418;-65
2023/03/17 12:43:54;;;;;;;;;4.67;3.67;;;;;-147.14;100.00;58812.66;4979963;28;45479;-65
2023/03/17 12:46:32;;;;;;;;;4.00;4.00;;;;;-147.14;100.00;58812.66;4979564;28;45330;-65
2023/03/17 12:49:16;;;;;;;;;9.00;9.00;;;;;-147.14;100.00;58812.66;4978938;28;45506;-65
2023/03/17 12:52:06;;;;;;;;;4.00;4.00;;;;;-147.14;100.00;58812.66;4979101;28;45622;-64
2023/03/17 12:54:36;;;;;;;;;3.33;3.00;;;;;-147.14;100.00;58812.66;4977787;28;45392;-65
2023/03/17 12:57:12;;;;;;;;;5.67;5.00;;;;;-147.14;100.00;58812.66;4977761;28;72244;-66
2023/03/17 12:59:41;;;;;;;;;3.33;2.33;;;;;-147.14;100.00;58812.66;4977962;28;45341;-65
2023/03/17 13:02:30;;;;;;;;;5.67;4.67;;;;;-147.14;100.00;58812.66;4977339;28;45375;-65
2023/03/17 13:04:59;;;;;;;;;5.67;5.33;;;;;-147.14;100.00;58812.66;4977307;28;45841;-64
2023/03/17 13:07:45;;;;;;;;;6.33;5.00;;;;;-147.14;100.00;58812.66;5010370;28;45445;-66
2023/03/17 13:10:36;;;;;;;;;5.33;5.00;;;;;-147.14;100.00;58812.66;5005208;28;45481;-65
2023/03/17 13:13:06;;;;;;;;;5.67;5.33;;;;;-147.14;100.00;58812.66;4978434;28;45247;-65
2023/03/17 13:15:35;;;;;;;;;3.00;2.00;;;;;-147.14;100.00;58812.66;4977424;28;47210;-66
2023/03/17 13:18:15;;;;;;;;;5.33;4.00;;;;;-147.14;100.00;58812.66;4978023;28;45800;-64
2023/03/17 13:20:44;;;;;;;;;5.33;4.33;;;;;-147.14;100.00;58812.66;4973849;28;45480;-66
2023/03/17 13:23:09;;;;;;;;;5.00;3.67;;;;;-147.14;100.00;58812.66;4978368;28;45448;-65
2023/03/17 13:25:48;;;;;;;;;6.33;4.00;;;;;-147.14;100.00;58812.66;4978587;28;46002;-65
2023/03/17 13:28:14;;;;;;;;;6.33;4.00;;;;;-147.14;100.00;58812.66;4978537;28;45626;-66
2023/03/17 13:30:39;;;;;;;;;4.00;4.00;;;;;-147.14;100.00;58812.66;4978724;28;45364;-65
2023/03/17 13:33:12;;;;;;;;;5.00;4.00;;;;;-147.14;100.00;58812.66;4978119;28;45284;-65
2023/03/17 13:36:02;;;;;;;;;7.00;6.00;;;;;-147.14;100.00;58812.66;4978828;28;45736;-64
2023/03/17 13:38:33;;;;;;;;;4.00;3.00;;;;;-147.14;100.00;58812.66;4976053;28;45329;-65
2023/03/17 13:41:01;;;;;;;;;4.33;4.00;;;;;-147.14;100.00;58812.66;4981933;28;45476;-65
2023/03/17 13:43:55;;;;;;;;;8.00;5.00;;;;;-147.14;100.00;58812.66;4982207;28;45475;-65
2023/03/17 13:46:26;;;;;;;;;3.33;3.33;;;;;-147.14;100.00;58812.66;4974514;28;46714;-65
2023/03/17 13:48:53;;;;;;;;;5.00;5.00;;;;;-147.14;100.00;58812.66;4980260;28;45296;-65
2023/03/17 13:51:20;;;;;;;;;7.00;7.00;;;;;-147.14;100.00;58812.66;4967697;28;45533;-65
2023/03/17 13:53:53;;;;;;;;;5.33;5.33;;;;;-147.14;100.00;58812.66;4980194;28;45448;-65
2023/03/17 13:56:36;;;;;;;;;6.67;5.67;;;;;-147.14;100.00;58812.66;4967422;28;47468;-65
2023/03/17 13:59:03;;;;;;;;;6.33;5.33;;;;;-147.14;100.00;58812.66;4984412;28;45398;-65
2023/03/17 14:01:36;;;;;;;;;6.00;4.00;;;;;-147.14;100.00;58812.66;4988236;28;45713;-65
2023/03/17 14:04:04;;;;;;;;;9.00;5.67;;;;;-147.14;100.00;58812.66;4969044;28;45394;-65
2023/03/17 14:06:33;;;;;;;;;7.67;7.67;;;;;-147.14;100.00;58812.66;4981504;28;45693;-65
2023/03/17 14:09:41;;;;;;;;;5.00;5.00;;;;;-147.14;100.00;58812.66;4984745;28;45333;-65
2023/03/17 14:12:21;;;;;;;;;8.33;8.00;;;;;-147.14;100.00;58812.66;4976755;28;45416;-65
2023/03/17 14:15:06;;;;;;;;;6.33;6.00;;;;;-147.14;100.00;58812.66;4989884;28;45527;-65
2023/03/17 14:17:45;;;;;;;;;7.00;5.00;;;;;-147.14;100.00;58812.66;4982482;28;46198;-65
2023/03/17 14:20:14;;;;;;;;;9.00;6.67;;;;;-147.14;100.00;58812.66;4996224;28;45425;-65
2023/03/17 14:22:42;;;;;;;;;7.67;6.00;;;;;-147.14;100.00;58812.66;5000327;28;45373;-65
2023/03/17 14:25:19;;;;;;;;;6.67;6.00;;;;;-147.14;100.00;58812.66;4988217;28;45582;-65
2023/03/17 14:27:48;;;;;;;;;8.67;6.00;;;;;-147.14;100.00;58812.66;4986263;28;47105;-65
2023/03/17 14:30:25;;;;;;;;;9.00;9.00;;;;;-147.14;100.00;58812.66;4984439;28;45780;-65
2023/03/17 14:33:03;;;;;;;;;11.00;8.00;;;;;-147.14;100.00;58812.66;4982648;28;45330;-65
2023/03/17 14:35:31;;;;;;;;;7.33;7.00;;;;;-147.14;100.00;58812.66;4990015;28;45663;-65
2023/03/17 14:37:56;;;;;;;;;10.33;6.33;;;;;-147.14;100.00;58812.66;4985245;28;45568;-66
2023/03/17 14:40:24;;;;;;;;;9.33;7.33;;;;;-147.14;100.00;58812.66;4992042;28;46816;-65
2023/03/17 14:42:50;;;;;;;;;12.00;9.33;;;;;-147.14;100.00;58812.66;4981658;28;45298;-65
2023/03/17 14:45:28;;;;;;;;;8.67;8.00;;;;;-147.14;100.00;58812.66;4980344;28;45362;-65
2023/03/17 14:47:54;;;;;;;;;9.00;9.00;;;;;-147.14;100.00;58812.66;4980793;28;46101;-65
2023/03/17 14:50:23;;;;;;;;;9.00;8.00;;;;;-147.14;100.00;58812.66;4980939;28;45517;-65
2023/03/17 14:52:49;;;;;;;;;10.33;8.33;;;;;-147.14;100.00;58812.66;4978799;28;45371;-65
2023/03/17 14:55:15;;;;;;;;;8.67;8.00;;;;;-147.14;100.00;58812.66;4982824;28;68513;-64
2023/03/17 14:57:40;;;;;;;;;12.00;10.00;;;;;-147.14;100.00;58812.66;4987489;28;46140;-64
2023/03/17 15:00:21;;;;;;;;;10.33;9.33;;;;;-147.14;100.00;58812.66;4992689;28;45490;-64
2023/03/17 15:02:55;;;;;;;;;7.00;7.00;;;;;-147.14;100.00;58812.66;4972745;28;45522;-63
2023/03/17 15:05:26;;;;;;;;;8.67;8.67;;;;;-147.14;100.00;58812.66;4981763;28;45479;-65
2023/03/17 15:07:52;;;;;;;;;11.33;8.33;;;;;-147.14;100.00;58812.66;4973923;28;46166;-65
2023/03/17 15:10:18;;;;;;;;;9.67;8.67;;;;;-147.14;100.00;58812.66;4980479;28;46082;-64
2023/03/17 15:12:45;;;;;;;;;8.67;8.33;;;;;-147.14;100.00;58812.66;4980204;28;45813;-64
2023/03/17 15:15:28;;;;;;;;;11.00;10.33;;;;;-147.14;100.00;58812.66;4980072;28;45449;-64
2023/03/17 15:17:56;;;;;;;;;12.00;9.67;;;;;-147.14;100.00;58812.66;4980597;28;46777;-64
2023/03/17 15:20:21;;;;;;;;;9.00;9.00;;;;;-147.14;100.00;58812.66;4973391;28;45533;-64
2023/03/17 15:22:55;;;;;;;;;15.33;11.67;;;;;-147.14;100.00;58812.66;4982343;28;45511;-64
2023/03/17 15:25:36;;;;;;;;;14.67;11.00;;;;;-147.14;100.00;58812.66;4978189;28;45412;-65
2023/03/17 15:28:10;;;;;;;;;9.67;8.67;;;;;-147.14;100.00;58812.66;4978415;28;45326;-64
2023/03/17 15:30:39;;;;;;;;;8.33;8.33;;;;;-147.14;100.00;58812.66;4980390;28;45467;-64
2023/03/17 15:33:15;;;;;;;;;9.67;9.00;;;;;-147.14;100.00;58812.66;4980274;28;45543;-63
2023/03/17 15:35:41;;;;;;;;;8.67;8.67;;;;;-147.14;100.00;58812.66;4978087;28;45358;-63
2023/03/17 15:38:09;;;;;;;;;11.00;10.00;;;;;-147.14;100.00;58812.66;4967790;28;75138;-64
2023/03/17 15:40:34;;;;;;;;;9.00;9.00;;;;;-147.14;100.00;58812.66;4977835;28;45614;-64
2023/03/17 15:43:00;;;;;;;;;9.00;9.00;;;;;-147.14;100.00;58812.66;4979697;28;59732;-65
2023/03/17 15:45:25;;;;;;;;;10.67;9.33;;;;;-147.14;100.00;58812.66;4984592;28;69519;-65
2023/03/17 15:47:51;;;;;;;;;14.00;10.67;;;;;-147.14;100.00;58812.66;4982424;28;65609;-65
2023/03/17 15:50:23;;;;;;;;;8.00;8.00;;;;;-147.14;100.00;58812.66;4981415;28;45329;-63
2023/03/17 15:52:48;;;;;;;;;11.67;9.00;;;;;-147.14;100.00;58812.66;4979797;28;45471;-64
2023/03/17 15:55:28;;;;;;;;;11.00;11.00;;;;;-147.14;100.00;58812.66;4979370;28;45388;-63
2023/03/17 15:57:54;;;;;;;;;10.00;10.00;;;;;-147.14;100.00;58812.66;4979193;28;45429;-65
2023/03/17 16:00:21;;;;;;;;;10.33;9.00;;;;;-147.14;100.00;58812.66;4978471;28;45487;-64
2023/03/17 16:02:48;;;;;;;;;12.00;10.00;;;;;-147.14;100.00;58812.66;4979907;28;45481;-64
2023/03/17 16:05:19;;;;;;;;;17.33;12.00;;;;;-147.14;100.00;58812.66;4981343;28;45626;-64
2023/03/17 16:07:45;;;;;;;;;25.33;20.67;;;;;-147.14;100.00;58812.66;4979031;28;45353;-64
2023/03/17 16:10:29;;;;;;;;;14.00;13.00;;;;;-147.14;100.00;58812.66;4981013;28;45365;-66
2023/03/17 16:12:54;;;;;;;;;14.67;11.00;;;;;-147.14;100.00;58812.66;4987412;28;45442;-64
2023/03/17 16:15:25;;;;;;;;;13.33;13.00;;;;;-147.14;100.00;58812.66;4983826;28;64251;-64
2023/03/17 16:17:53;;;;;;;;;12.67;9.67;;;;;-147.14;100.00;58812.66;4966130;28;47008;-65
2023/03/17 16:20:26;;;;;;;;;10.00;9.00;;;;;-147.14;100.00;58812.66;4981384;28;45486;-64
2023/03/17 16:22:57;;;;;;;;;12.33;12.00;;;;;-147.14;100.00;58812.66;4992731;28;45499;-65
2023/03/17 16:25:29;;;;;;;;;10.00;8.00;;;;;-147.14;100.00;58812.66;4990979;28;45354;-64
2023/03/17 16:27:56;;;;;;;;;10.67;10.33;;;;;-147.14;100.00;58812.66;4970100;28;45632;-64
2023/03/17 16:30:30;;;;;;;;;11.00;11.00;;;;;-147.14;100.00;58812.66;4982647;28;45526;-61
2023/03/17 16:33:11;;;;;;;;;13.00;11.67;;;;;-147.14;100.00;58812.66;4978284;28;45735;-61
2023/03/17 16:35:36;;;;;;;;;13.67;10.67;;;;;-147.14;100.00;58812.66;4980321;28;45531;-60
2023/03/17 16:38:02;;;;;;;;;29.00;25.67;;;;;-147.14;100.00;58812.66;4962504;28;46950;-60
2023/03/17 16:40:33;;;;;;;;;7.33;6.67;;;;;-147.14;100.00;58812.66;4980199;28;45392;-60
2023/03/17 16:42:58;;;;;;;;;8.33;8.00;;;;;-147.14;100.00;58812.66;4982402;28;45959;-66
2023/03/17 16:45:25;;;;;;;;;15.33;14.00;;;;;-147.14;100.00;58812.66;4977380;28;45492;-65
2023/03/17 16:47:51;;;;;;;;;10.33;9.67;;;;;-147.14;100.00;58812.66;4977053;28;45387;-65
2023/03/17 16:50:21;;;;;;;;;21.00;21.00;;;;;-147.14;100.00;58812.66;4978129;28;45386;-65
2023/03/17 16:52:46;;;;;;;;;23.67;17.33;;;;;-147.14;100.00;58812.66;4973513;28;45575;-65
2023/03/17 16:55:13;;;;;;;;;13.67;13.00;;;;;-147.14;100.00;58812.66;4959390;28;62464;-65
2023/03/17 16:57:41;;;;;;;;;8.00;8.00;;;;;-147.14;100.00;58812.66;4978200;28;46207;-65
2023/03/17 17:00:08;;;;;;;;;20.00;19.00;;;;;-147.14;100.00;58812.66;4977609;28;45258;-65
2023/03/17 17:02:33;;;;;;;;;12.67;12.67;;;;;-147.14;100.00;58812.66;4960514;28;45425;-64
2023/03/17 17:05:00;;;;;;;;;21.00;19.67;;;;;-147.14;100.00;58812.66;4977114;28;45222;-64
2023/03/17 17:07:26;;;;;;;;;19.00;18.00;;;;;-147.14;100.00;58812.66;4976528;28;45479;-65
2023/03/17 17:09:51;;;;;;;;;20.33;16.67;;;;;-147.14;100.00;58812.66;4974747;28;45966;-65
2023/03/17 17:12:16;;;;;;;;;26.00;23.33;;;;;-147.14;100.00;58812.66;4976805;28;59158;-65
2023/03/17 17:14:42;;;;;;;;;14.00;13.33;;;;;-147.14;100.00;58812.66;4981169;28;64047;-65
2023/03/17 17:17:08;;;;;;;;;11.33;9.33;;;;;-147.14;100.00;58812.66;4988528;28;71006;-65
2023/03/17 17:19:33;;;;;;;;;15.33;13.67;;;;;-147.14;100.00;58812.66;4976614;28;45384;-65
2023/03/17 17:21:59;;;;;;;;;15.67;15.33;;;;;-147.14;100.00;58812.66;4973191;28;52013;-65
2023/03/17 17:24:24;;;;;;;;;23.67;20.67;;;;;-147.14;100.00;58812.66;4978682;28;45683;-65